Mytilene, Greece

2:32 PM EET on December 05, 2016 (GMT +0200)
Odysseas Elytis | | Change Station

Elev 16 ft 39.05 °N, 26.60 °E | Updated 12 minutes ago

Partly Cloudy
Partly Cloudy
57 °F
Feels Like 57 °F
N
7
Wind Variable Wind from NE

Today
High -- | Low -- °F
--% Chance of Precip.
Yesterday
High -- | Low -- °F
Precip. -- in
Pressure 30.39 in
Visibility 6.2 miles
Clouds Few 2500 ft
Dew Point 36 °F
Humidity 44%
Rainfall 0.00 in
Snow Depth Not available.
7:17 AM 4:50 PM
Waxing Crescent, 31% visible
METAR LGMT 051220Z 05006KT 9999 FEW025 14/02 Q1029
Pressure 30.39 in
Visibility 6.2 miles
Clouds Few 2500 ft
Dew Point 36 °F
Humidity 44%
Rainfall 0.00 in
Snow Depth Not available.
7:17 AM 4:50 PM
Waxing Crescent, 31% visible
METAR LGMT 051220Z 05006KT 9999 FEW025 14/02 Q1029

10-Day Weather Forecast

×

Almanac

Astronomy

Dec. 05, 2016 Rise Set
Actual Time
Civil Twilight
Nautical Twilight
Astronomical Twilight
Moon
Length of Visible Light
Length of Day
Tomorrow will be .
, % of the Moon is Illuminated

Today's Extremes

Country Highs Country Lows

Community

WunderPhotos

Upload Photos

1,955,777 photos uploaded!

WunderBlog® & News

Nearby

Air Quality

  Air Quality AQ Index Pollutant
Not available.

Snow Depth

Station Depth Elevation

Earthquake Activity

City Distance Mag. Time & Date
Minimum magnitude displayed is 2.5.

Coastal Water Temperatures

Place Temperature

Stations

Nearby Weather Stations

Station Location Temp. Windchill Dew Point Humidity Wind Precip. Elev Updated Type